createdAt,value
2018-04-06T00:00:07.523Z,19.33
2018-04-06T00:02:35.250Z,24.93
2018-04-06T00:05:02.968Z,17.80
2018-04-06T00:07:30.712Z,17.37
2018-04-06T00:09:58.420Z,17.37
2018-04-06T00:12:26.131Z,14.93
2018-04-06T00:14:53.837Z,18.40
2018-04-06T00:17:22.317Z,16.47
2018-04-06T00:19:50.028Z,15.27
2018-04-06T00:22:17.737Z,16.17
2018-04-06T00:24:45.462Z,19.47
2018-04-06T00:27:13.163Z,20.27
2018-04-06T00:29:40.884Z,13.60
2018-04-06T00:32:08.602Z,16.00
2018-04-06T00:34:36.655Z,13.17
2018-04-06T00:37:04.369Z,12.80
2018-04-06T00:39:32.089Z,16.10
2018-04-06T00:41:59.801Z,17.63
2018-04-06T00:44:27.517Z,16.57
2018-04-06T00:46:55.242Z,19.30
2018-04-06T00:49:22.948Z,14.60
2018-04-06T00:51:50.657Z,13.57
2018-04-06T00:54:18.368Z,15.57
2018-04-06T00:56:46.098Z,16.43
2018-04-06T00:59:13.813Z,18.63
2018-04-06T01:01:41.531Z,15.27
2018-04-06T01:04:09.228Z,12.77
2018-04-06T01:06:36.948Z,11.80
2018-04-06T01:09:04.668Z,12.77
2018-04-06T01:11:32.367Z,14.13
2018-04-06T01:14:00.081Z,13.30
2018-04-06T01:16:27.797Z,12.77
2018-04-06T01:18:55.496Z,13.53
2018-04-06T01:21:23.196Z,16.03
2018-04-06T01:23:50.908Z,10.80
2018-04-06T01:26:18.714Z,22.77
2018-04-06T01:28:46.415Z,12.07
2018-04-06T01:31:14.131Z,15.70
2018-04-06T01:33:41.849Z,23.07
2018-04-06T01:36:09.595Z,15.33
2018-04-06T01:38:37.316Z,14.73
2018-04-06T01:41:05.034Z,12.07
2018-04-06T01:43:32.741Z,10.63
2018-04-06T01:46:00.501Z,10.53
2018-04-06T01:48:28.197Z,16.40
2018-04-06T01:50:55.917Z,11.07
2018-04-06T01:53:24.404Z,12.87
2018-04-06T01:55:52.113Z,9.73
2018-04-06T01:58:19.817Z,14.63
2018-04-06T02:00:47.529Z,14.00
2018-04-06T02:03:15.244Z,10.47
2018-04-06T02:05:42.943Z,12.70
2018-04-06T02:08:10.665Z,8.83
2018-04-06T02:10:38.381Z,9.27
2018-04-06T02:13:06.090Z,12.03
2018-04-06T02:15:33.810Z,11.20
2018-04-06T02:18:02.738Z,15.17
2018-04-06T02:20:30.457Z,11.50
2018-04-06T02:22:58.177Z,8.00
2018-04-06T02:25:25.885Z,13.97
2018-04-06T02:27:53.600Z,12.57
2018-04-06T02:30:21.311Z,10.47
2018-04-06T02:32:49.784Z,10.90
2018-04-06T02:35:17.507Z,10.70
2018-04-06T02:37:45.290Z,17.77
2018-04-06T02:40:12.997Z,18.73
2018-04-06T02:42:41.455Z,8.70
2018-04-06T02:45:09.179Z,14.00
2018-04-06T02:47:37.351Z,10.67
2018-04-06T02:50:05.070Z,10.57
2018-04-06T02:52:32.781Z,9.93
2018-04-06T02:55:00.507Z,12.47
2018-04-06T02:57:28.972Z,10.93
2018-04-06T02:59:56.688Z,8.37
2018-04-06T03:02:24.403Z,7.27
2018-04-06T03:04:52.126Z,11.63
2018-04-06T03:07:19.851Z,11.20
2018-04-06T03:09:47.570Z,13.30
2018-04-06T03:12:15.267Z,10.13
2018-04-06T03:14:42.992Z,11.17
2018-04-06T03:17:10.693Z,11.47
2018-04-06T03:19:38.418Z,10.73
2018-04-06T03:22:06.358Z,9.00
2018-04-06T03:24:34.050Z,8.97
2018-04-06T03:27:01.803Z,12.93
2018-04-06T03:29:29.511Z,15.13
2018-04-06T03:31:57.226Z,15.17
2018-04-06T03:34:24.938Z,9.47
2018-04-06T03:36:52.641Z,13.53
2018-04-06T03:39:21.547Z,9.27
2018-04-06T03:41:50.008Z,9.80
2018-04-06T03:44:17.705Z,8.37
2018-04-06T03:46:45.416Z,11.40
2018-04-06T03:49:13.125Z,9.70
2018-04-06T03:51:40.832Z,13.20
2018-04-06T03:54:08.526Z,12.63
2018-04-06T03:56:36.238Z,8.13
2018-04-06T03:59:03.952Z,10.90
2018-04-06T04:01:31.666Z,10.20
2018-04-06T04:03:59.388Z,7.83
2018-04-06T04:06:27.117Z,10.40
2018-04-06T04:08:54.835Z,9.90
2018-04-06T04:11:22.575Z,10.57
2018-04-06T04:13:50.276Z,11.10
2018-04-06T04:16:18.758Z,12.00
2018-04-06T04:18:46.454Z,10.07
2018-04-06T04:21:14.169Z,17.63
2018-04-06T04:23:41.872Z,11.23
2018-04-06T04:26:09.574Z,10.57
2018-04-06T04:28:38.046Z,10.30
2018-04-06T04:31:05.765Z,14.77
2018-04-06T04:33:33.460Z,13.00
2018-04-06T04:36:01.966Z,10.23
2018-04-06T04:38:30.091Z,25.10
2018-04-06T04:40:59.272Z,9.37
2018-04-06T04:43:27.165Z,15.67
2018-04-06T04:48:44.496Z,15.93
2018-04-06T04:51:12.968Z,10.63
2018-04-06T04:53:40.720Z,8.93
2018-04-06T04:56:20.664Z,17.47
2018-04-06T04:58:49.211Z,11.93
2018-04-06T05:01:16.925Z,17.33
2018-04-06T05:03:44.654Z,15.07
2018-04-06T05:06:12.405Z,17.00
2018-04-06T05:08:40.139Z,13.67
2018-04-06T05:11:07.839Z,23.17
2018-04-06T05:13:35.565Z,16.73
2018-04-06T05:16:03.298Z,20.50
2018-04-06T05:18:31.043Z,16.00
2018-04-06T05:20:58.765Z,20.43
2018-04-06T05:23:26.476Z,18.47
2018-04-06T05:25:54.186Z,18.00
2018-04-06T05:28:21.902Z,20.13
2018-04-06T05:30:51.340Z,18.10
2018-04-06T05:33:19.075Z,16.90
2018-04-06T05:35:46.783Z,17.23
2018-04-06T05:38:14.506Z,25.53
2018-04-06T05:40:42.395Z,28.03
2018-04-06T05:43:11.490Z,25.67
2018-04-06T05:45:39.334Z,22.53
2018-04-06T05:48:07.234Z,27.83
2018-04-06T05:50:34.944Z,19.73
2018-04-06T05:53:04.405Z,20.17
2018-04-06T05:55:32.202Z,24.67
2018-04-06T05:57:59.955Z,21.70
2018-04-06T06:00:27.691Z,17.97
2018-04-06T06:02:55.402Z,18.37
2018-04-06T06:05:23.117Z,21.27
2018-04-06T06:07:50.824Z,24.43
2018-04-06T06:10:18.587Z,20.03
2018-04-06T06:13:00.900Z,20.33
2018-04-06T06:15:28.647Z,22.60
2018-04-06T06:17:56.365Z,20.57
2018-04-06T06:20:24.844Z,33.53
2018-04-06T06:22:52.605Z,14.33
2018-04-06T06:25:20.335Z,20.53
2018-04-06T06:27:48.092Z,19.53
2018-04-06T06:30:17.694Z,16.70
2018-04-06T06:32:45.472Z,20.43
2018-04-06T06:35:13.212Z,18.57
2018-04-06T06:37:40.948Z,19.87
2018-04-06T06:40:09.637Z,16.63
2018-04-06T06:42:38.163Z,17.30
2018-04-06T06:45:06.352Z,20.73
2018-04-06T06:47:34.088Z,20.10
2018-04-06T06:50:01.807Z,15.17
2018-04-06T06:52:29.562Z,21.27
2018-04-06T06:54:57.940Z,18.27
2018-04-06T06:57:25.647Z,19.50
2018-04-06T06:59:53.361Z,19.57
2018-04-06T07:02:21.066Z,16.47
2018-04-06T07:04:49.621Z,17.43
2018-04-06T07:07:17.350Z,17.20
2018-04-06T07:09:45.209Z,21.83
2018-04-06T07:12:12.934Z,17.37
2018-04-06T07:14:41.462Z,21.97
2018-04-06T07:17:09.340Z,20.30
2018-04-06T07:19:37.053Z,21.90
2018-04-06T07:22:04.822Z,20.43
2018-04-06T07:24:32.592Z,18.63
2018-04-06T07:27:00.427Z,20.63
2018-04-06T07:29:28.327Z,28.10
2018-04-06T07:31:56.060Z,23.27
2018-04-06T07:34:23.824Z,17.67
2018-04-06T07:36:51.549Z,19.20
2018-04-06T07:39:19.523Z,23.83
2018-04-06T07:41:48.821Z,25.87
2018-04-06T07:44:17.466Z,21.20
2018-04-06T07:46:46.224Z,29.30
2018-04-06T07:49:15.039Z,24.77
2018-04-06T07:51:42.908Z,24.23
2018-04-06T07:54:10.679Z,19.97
2018-04-06T07:56:39.579Z,21.20
2018-04-06T07:59:07.412Z,19.83
2018-04-06T08:01:36.523Z,26.03
2018-04-06T08:04:04.274Z,19.90
2018-04-06T08:06:32.133Z,18.93
2018-04-06T08:08:59.858Z,19.53
2018-04-06T08:11:27.831Z,22.17
2018-04-06T08:13:55.573Z,20.83
2018-04-06T08:16:23.313Z,15.07
2018-04-06T08:18:51.104Z,18.50
2018-04-06T08:21:18.841Z,21.13
2018-04-06T08:23:46.573Z,17.83
2018-04-06T08:26:14.328Z,22.00
2018-04-06T08:28:42.058Z,19.97
2018-04-06T08:31:09.772Z,33.63
2018-04-06T08:33:37.627Z,26.57
2018-04-06T08:36:05.401Z,21.93
2018-04-06T08:38:33.131Z,21.50
2018-04-06T08:41:01.139Z,31.57
2018-04-06T08:43:29.626Z,28.10
2018-04-06T08:45:57.369Z,29.27
2018-04-06T08:48:25.900Z,29.23
2018-04-06T08:50:57.898Z,27.43
2018-04-06T08:53:26.466Z,30.87
2018-04-06T08:55:55.127Z,34.00
2018-04-06T08:58:22.933Z,27.47
2018-04-06T09:00:50.838Z,35.17
2018-04-06T09:03:18.548Z,29.53
2018-04-06T09:05:46.265Z,30.30
2018-04-06T09:08:13.988Z,27.37
2018-04-06T09:10:41.713Z,30.70
2018-04-06T09:13:09.562Z,37.67
2018-04-06T09:15:37.283Z,38.90
2018-04-06T09:18:04.997Z,36.00
2018-04-06T09:20:32.768Z,34.53
2018-04-06T09:23:00.493Z,35.03
2018-04-06T09:25:28.730Z,43.87
2018-04-06T09:27:56.459Z,38.90
2018-04-06T09:30:24.212Z,37.40
2018-04-06T09:32:51.964Z,33.97
2018-04-06T09:35:19.721Z,35.80
2018-04-06T09:37:47.436Z,38.87
2018-04-06T09:40:15.149Z,41.87
2018-04-06T09:42:42.885Z,47.17
2018-04-06T09:45:10.598Z,47.83
2018-04-06T09:47:38.628Z,54.83
2018-04-06T09:50:07.532Z,46.73
2018-04-06T09:52:35.236Z,46.23
2018-04-06T09:55:02.965Z,44.03
2018-04-06T09:57:31.441Z,44.33
2018-04-06T09:59:59.163Z,39.20
2018-04-06T10:02:26.913Z,44.80
2018-04-06T10:04:56.540Z,49.83
2018-04-06T10:07:24.250Z,53.73
2018-04-06T10:09:51.977Z,49.60
2018-04-06T10:12:19.684Z,52.50
2018-04-06T10:14:47.394Z,47.43
2018-04-06T10:17:15.105Z,56.83
2018-04-06T10:19:42.822Z,51.70
2018-04-06T10:22:10.537Z,60.80
2018-04-06T10:24:38.270Z,50.03
2018-04-06T10:27:05.999Z,56.00
2018-04-06T10:29:33.724Z,55.23
2018-04-06T10:32:01.432Z,61.40
2018-04-06T10:34:29.141Z,54.03
2018-04-06T10:37:13.273Z,56.13
2018-04-06T10:39:40.966Z,53.70
2018-04-06T10:42:08.678Z,55.10
2018-04-06T10:44:36.397Z,51.93
2018-04-06T10:47:04.113Z,57.30
2018-04-06T10:49:31.817Z,54.83
2018-04-06T10:52:00.355Z,54.30
2018-04-06T10:54:28.830Z,53.97
2018-04-06T10:56:56.537Z,55.03
2018-04-06T10:59:24.244Z,50.87
2018-04-06T11:01:51.965Z,55.83
2018-04-06T11:04:19.675Z,45.97
2018-04-06T11:06:47.383Z,47.73
2018-04-06T11:09:15.105Z,51.47
2018-04-06T11:11:42.827Z,43.50
2018-04-06T11:14:10.694Z,47.40
2018-04-06T11:16:38.410Z,41.50
2018-04-06T11:19:06.124Z,44.77
2018-04-06T11:21:33.835Z,41.60
2018-04-06T11:24:01.563Z,40.17
2018-04-06T11:26:29.281Z,47.07
2018-04-06T11:28:56.997Z,45.87
2018-04-06T11:31:30.206Z,46.03
2018-04-06T11:33:57.915Z,45.50
2018-04-06T11:36:25.634Z,38.87
2018-04-06T11:38:53.344Z,36.37
2018-04-06T11:41:21.813Z,38.43
2018-04-06T11:43:50.297Z,37.27
2018-04-06T11:46:18.025Z,38.10
2018-04-06T11:48:45.745Z,39.83
2018-04-06T11:51:14.226Z,37.87
2018-04-06T11:53:42.593Z,36.87
2018-04-06T11:56:11.085Z,29.60
2018-04-06T11:58:38.797Z,35.87
2018-04-06T12:01:06.854Z,37.30
2018-04-06T12:03:34.575Z,35.80
2018-04-06T12:06:02.308Z,34.17
2018-04-06T12:08:30.029Z,34.53
2018-04-06T12:10:58.492Z,33.53
2018-04-06T12:13:26.205Z,36.47
2018-04-06T12:15:53.917Z,36.63
2018-04-06T12:18:21.798Z,34.50
2018-04-06T12:20:49.530Z,34.50
2018-04-06T12:23:17.242Z,31.83
2018-04-06T12:25:45.723Z,33.83
2018-04-06T12:28:13.489Z,33.23
2018-04-06T12:30:41.226Z,32.00
2018-04-06T12:33:09.735Z,39.90
2018-04-06T12:35:38.217Z,31.97
2018-04-06T12:38:06.718Z,35.60
2018-04-06T12:40:34.437Z,31.53
2018-04-06T12:43:02.172Z,31.23
2018-04-06T12:45:29.870Z,32.90
2018-04-06T12:47:57.650Z,36.40
2018-04-06T12:50:26.612Z,35.40
2018-04-06T12:52:54.340Z,32.07
2018-04-06T12:55:23.469Z,36.07
2018-04-06T12:57:51.302Z,37.63
2018-04-06T13:00:19.030Z,35.33
2018-04-06T13:02:46.752Z,35.70
2018-04-06T13:05:14.456Z,38.27
2018-04-06T13:07:42.180Z,32.57
2018-04-06T13:10:10.688Z,35.37
2018-04-06T13:12:38.443Z,37.73
2018-04-06T13:15:06.194Z,33.70
2018-04-06T13:17:33.980Z,33.63
2018-04-06T13:20:01.686Z,33.07
2018-04-06T13:22:29.393Z,35.83
2018-04-06T13:24:57.119Z,37.03
2018-04-06T13:27:24.854Z,33.90
2018-04-06T13:30:00.921Z,32.03
2018-04-06T13:32:28.664Z,30.30
2018-04-06T13:34:56.390Z,32.80
2018-04-06T13:37:24.873Z,31.50
2018-04-06T13:39:53.386Z,32.53
2018-04-06T13:42:21.169Z,33.40
2018-04-06T13:44:51.459Z,34.73
2018-04-06T13:47:19.961Z,34.13
2018-04-06T13:49:47.690Z,29.43
2018-04-06T13:52:15.565Z,30.73
2018-04-06T13:54:44.866Z,30.03
2018-04-06T13:57:14.339Z,30.70
2018-04-06T13:59:44.481Z,30.10
2018-04-06T14:02:12.199Z,31.20
2018-04-06T14:04:39.919Z,28.57
2018-04-06T14:07:07.632Z,28.03
2018-04-06T14:09:35.409Z,34.40
2018-04-06T14:12:03.148Z,31.10
2018-04-06T14:14:31.640Z,30.97
2018-04-06T14:16:59.367Z,32.60
2018-04-06T14:19:27.094Z,31.90
2018-04-06T14:21:54.809Z,32.47
2018-04-06T14:24:22.527Z,29.87
2018-04-06T14:26:50.256Z,34.30
2018-04-06T14:29:17.982Z,32.63
2018-04-06T14:31:46.498Z,31.17
2018-04-06T14:34:14.220Z,31.10
2018-04-06T14:36:41.971Z,30.70
2018-04-06T14:39:09.931Z,31.80
2018-04-06T14:41:38.756Z,31.13
2018-04-06T14:44:06.782Z,29.67
2018-04-06T14:46:34.582Z,30.30
2018-04-06T14:49:02.333Z,28.80
2018-04-06T14:51:30.109Z,30.07
2018-04-06T14:53:57.858Z,29.00
2018-04-06T14:56:26.267Z,29.07
2018-04-06T14:58:54.326Z,27.90
2018-04-06T15:01:22.055Z,28.60
2018-04-06T15:03:49.850Z,25.70
2018-04-06T15:06:17.640Z,27.80
2018-04-06T15:08:45.388Z,29.17
2018-04-06T15:11:13.118Z,27.40
2018-04-06T15:13:42.257Z,29.07
2018-04-06T15:16:10.032Z,25.27
2018-04-06T15:18:37.831Z,26.07
2018-04-06T15:21:05.592Z,26.53
2018-04-06T15:23:33.326Z,24.93
2018-04-06T15:26:01.051Z,30.80
2018-04-06T15:28:28.822Z,22.43
2018-04-06T15:30:56.685Z,22.47
2018-04-06T15:33:25.186Z,21.23
2018-04-06T15:35:53.160Z,22.97
2018-04-06T15:38:21.032Z,21.33
2018-04-06T15:40:48.789Z,23.20
2018-04-06T15:43:17.251Z,20.73
2018-04-06T15:45:45.077Z,18.77
2018-04-06T15:48:13.230Z,18.20
2018-04-06T15:50:42.677Z,17.97
2018-04-06T15:53:11.642Z,17.80
2018-04-06T15:55:42.856Z,19.37
2018-04-06T15:58:12.273Z,20.30
2018-04-06T16:00:43.433Z,17.10
2018-04-06T16:03:13.886Z,15.87
2018-04-06T16:05:43.447Z,18.27
2018-04-06T16:08:15.760Z,16.13
2018-04-06T16:10:55.468Z,15.83
2018-04-06T16:13:24.148Z,16.17
2018-04-06T16:16:00.288Z,16.00
2018-04-06T16:18:28.055Z,14.90
2018-04-06T16:20:57.564Z,18.40
2018-04-06T16:26:05.505Z,16.53
2018-04-06T16:28:34.142Z,12.37
2018-04-06T16:31:01.873Z,13.63
2018-04-06T16:33:31.135Z,14.00
2018-04-06T16:35:59.515Z,13.13
2018-04-06T16:38:27.345Z,13.43
2018-04-06T16:40:56.094Z,16.33
2018-04-06T16:43:28.633Z,18.00
2018-04-06T16:45:56.870Z,14.50
2018-04-06T16:48:30.948Z,14.33
2018-04-06T16:51:02.582Z,11.53
2018-04-06T16:53:31.856Z,12.20
2018-04-06T16:55:59.839Z,11.47
2018-04-06T16:58:27.666Z,11.50
2018-04-06T17:00:56.873Z,9.60
2018-04-06T17:03:24.885Z,9.63
2018-04-06T17:05:52.613Z,12.37
2018-04-06T17:08:20.544Z,9.50
2018-04-06T17:10:48.599Z,15.37
2018-04-06T17:13:16.344Z,8.57
2018-04-06T17:15:45.905Z,10.93
2018-04-06T17:18:19.505Z,8.80
2018-04-06T17:20:49.002Z,9.53
2018-04-06T17:23:23.945Z,8.80
2018-04-06T17:25:52.926Z,15.50
2018-04-06T17:28:31.274Z,11.57
2018-04-06T17:30:59.843Z,7.50
2018-04-06T17:33:28.551Z,7.57
2018-04-06T17:38:29.586Z,6.80
2018-04-06T17:40:57.376Z,8.23
2018-04-06T17:43:25.951Z,7.30
2018-04-06T17:45:53.812Z,10.53
2018-04-06T17:48:21.537Z,6.70
2018-04-06T17:50:49.364Z,11.10
2018-04-06T17:53:17.905Z,7.00
2018-04-06T17:55:50.591Z,8.73
2018-04-06T17:58:18.455Z,6.13
2018-04-06T18:00:46.916Z,5.60
2018-04-06T18:03:15.843Z,4.53
2018-04-06T18:05:43.739Z,9.43
2018-04-06T18:08:14.715Z,7.53
2018-04-06T18:10:45.188Z,6.93
2018-04-06T18:13:14.056Z,8.73
2018-04-06T18:15:43.562Z,10.27
2018-04-06T18:18:11.838Z,6.90
2018-04-06T18:20:39.768Z,6.43
2018-04-06T18:23:09.159Z,10.13
2018-04-06T18:25:36.963Z,8.90
2018-04-06T18:28:05.595Z,7.60
2018-04-06T18:30:37.714Z,6.83
2018-04-06T18:33:06.295Z,5.23
2018-04-06T18:35:37.611Z,4.03
2018-04-06T18:38:09.925Z,6.30
2018-04-06T18:41:06.571Z,5.33
2018-04-06T18:43:35.078Z,6.63
2018-04-06T18:46:03.120Z,6.30
2018-04-06T18:48:30.935Z,5.03
2018-04-06T18:51:09.481Z,7.97
2018-04-06T18:53:37.287Z,8.43
2018-04-06T18:56:16.190Z,4.57
2018-04-06T18:58:46.259Z,5.93
2018-04-06T19:01:15.109Z,5.60
2018-04-06T19:03:43.915Z,5.80
2018-04-06T19:06:12.468Z,5.37
2018-04-06T19:08:41.141Z,11.10
2018-04-06T19:11:08.988Z,3.87
2018-04-06T19:13:37.404Z,4.20
2018-04-06T19:16:08.063Z,5.07
2018-04-06T19:18:49.117Z,13.20
2018-04-06T19:21:22.727Z,6.30
2018-04-06T19:23:50.588Z,4.27
2018-04-06T19:26:18.620Z,6.80
2018-04-06T19:28:46.394Z,4.23
2018-04-06T19:31:41.162Z,8.13
2018-04-06T19:37:04.157Z,6.20
2018-04-06T19:39:32.632Z,7.50
2018-04-06T19:42:00.543Z,3.90
2018-04-06T19:44:28.375Z,10.00
2018-04-06T19:46:57.072Z,5.47
2018-04-06T19:49:24.912Z,4.90
2018-04-06T19:51:52.699Z,5.40
2018-04-06T19:54:48.044Z,6.43
2018-04-06T19:57:17.628Z,6.57
2018-04-06T19:59:49.790Z,5.27
2018-04-06T20:02:17.653Z,6.37
2018-04-06T20:04:48.673Z,12.20
2018-04-06T20:07:26.364Z,11.10
2018-04-06T20:09:56.221Z,7.80
2018-04-06T20:12:31.468Z,6.17
2018-04-06T20:15:06.087Z,9.20
2018-04-06T20:17:33.894Z,6.53
2018-04-06T20:20:02.045Z,7.13
2018-04-06T20:22:30.948Z,8.40
2018-04-06T20:25:02.017Z,12.27
2018-04-06T20:27:30.605Z,7.40
2018-04-06T20:29:58.468Z,12.73
2018-04-06T20:32:27.244Z,6.43
2018-04-06T20:34:55.855Z,6.60
2018-04-06T20:37:23.697Z,12.93
2018-04-06T20:39:52.181Z,7.93
2018-04-06T20:42:21.234Z,5.77
2018-04-06T20:44:51.921Z,10.40
2018-04-06T20:50:26.192Z,9.10
2018-04-06T20:52:55.512Z,10.83
2018-04-06T20:55:24.061Z,9.20
2018-04-06T20:57:59.614Z,10.67
2018-04-06T21:14:14.201Z,9.30
2018-04-06T21:16:42.744Z,11.00
2018-04-06T21:19:10.468Z,13.27
2018-04-06T21:21:38.731Z,6.77
2018-04-06T21:24:07.604Z,7.97
2018-04-06T21:26:35.356Z,12.80
2018-04-06T21:29:03.628Z,11.47
2018-04-06T21:31:31.472Z,11.63
2018-04-06T21:33:59.252Z,8.23
2018-04-06T21:36:28.402Z,9.93
2018-04-06T21:38:56.176Z,7.27
2018-04-06T21:41:24.937Z,14.60
2018-04-06T21:43:52.698Z,11.73
2018-04-06T21:46:20.450Z,16.17
2018-04-06T21:48:48.193Z,8.40
2018-04-06T21:51:15.913Z,10.40
2018-04-06T21:53:44.154Z,14.33
2018-04-06T21:56:11.893Z,11.77
2018-04-06T21:58:39.611Z,11.57
2018-04-06T22:01:07.357Z,9.10
2018-04-06T22:03:35.104Z,9.60
2018-04-06T22:06:02.846Z,9.90
2018-04-06T22:08:30.578Z,12.20
2018-04-06T22:10:58.333Z,9.93
2018-04-06T22:13:26.085Z,8.17
2018-04-06T22:15:53.949Z,10.20
2018-04-06T22:18:23.229Z,7.30
2018-04-06T22:20:52.098Z,16.10
2018-04-06T22:23:21.669Z,9.13
2018-04-06T22:25:49.394Z,15.03
2018-04-06T22:28:17.115Z,13.30
2018-04-06T22:30:44.864Z,8.80
2018-04-06T22:33:12.605Z,7.40
2018-04-06T22:35:42.414Z,10.50
2018-04-06T22:38:10.161Z,11.93
2018-04-06T22:40:38.769Z,7.70
2018-04-06T22:43:06.504Z,8.37
2018-04-06T22:45:34.218Z,9.13
2018-04-06T22:48:01.928Z,9.87
2018-04-06T22:50:29.642Z,10.70
2018-04-06T22:52:57.397Z,10.53
2018-04-06T22:55:25.104Z,10.97
2018-04-06T22:57:52.831Z,14.43
2018-04-06T23:00:21.500Z,12.00
2018-04-06T23:02:49.230Z,13.13
2018-04-06T23:05:17.657Z,14.53
2018-04-06T23:07:45.393Z,12.67
2018-04-06T23:10:13.130Z,12.30
2018-04-06T23:12:40.877Z,12.67
2018-04-06T23:15:08.583Z,11.50
2018-04-06T23:17:36.402Z,12.30
2018-04-06T23:20:04.211Z,13.03
2018-04-06T23:22:31.943Z,11.93
2018-04-06T23:24:59.660Z,10.90
2018-04-06T23:27:27.384Z,13.23
2018-04-06T23:29:55.105Z,11.10
2018-04-06T23:32:23.607Z,12.83
2018-04-06T23:34:51.322Z,18.07
2018-04-06T23:37:19.045Z,14.50
2018-04-06T23:39:46.777Z,17.10
2018-04-06T23:42:16.259Z,13.63
2018-04-06T23:44:43.999Z,10.23
2018-04-06T23:47:11.736Z,10.07
2018-04-06T23:49:45.224Z,11.57
2018-04-06T23:52:13.724Z,18.40
2018-04-06T23:54:41.469Z,10.83
2018-04-06T23:57:09.284Z,12.80
2018-04-06T23:59:37.016Z,9.93
